sensor_id;sensor_type;location;lat;lon;timestamp;temperature;humidity
12233;DHT22;6179;51.748;8.728;2023-04-06T00:02:41;2.80;83.00
12233;DHT22;6179;51.748;8.728;2023-04-06T00:08:42;2.80;82.90
12233;DHT22;6179;51.748;8.728;2023-04-06T00:14:44;2.90;83.10
12233;DHT22;6179;51.748;8.728;2023-04-06T00:20:45;3.20;82.20
12233;DHT22;6179;51.748;8.728;2023-04-06T00:26:46;2.90;82.40
12233;DHT22;6179;51.748;8.728;2023-04-06T00:32:47;2.90;82.40
12233;DHT22;6179;51.748;8.728;2023-04-06T00:38:48;3.00;82.50
12233;DHT22;6179;51.748;8.728;2023-04-06T00:44:49;2.90;82.30
12233;DHT22;6179;51.748;8.728;2023-04-06T00:50:49;2.80;82.80
12233;DHT22;6179;51.748;8.728;2023-04-06T00:56:50;2.80;82.40
12233;DHT22;6179;51.748;8.728;2023-04-06T01:02:52;2.90;82.40
12233;DHT22;6179;51.748;8.728;2023-04-06T01:08:53;3.00;82.30
12233;DHT22;6179;51.748;8.728;2023-04-06T01:14:54;3.10;82.20
12233;DHT22;6179;51.748;8.728;2023-04-06T01:20:55;3.10;82.00
12233;DHT22;6179;51.748;8.728;2023-04-06T01:26:56;3.10;81.80
12233;DHT22;6179;51.748;8.728;2023-04-06T01:32:57;2.90;82.00
12233;DHT22;6179;51.748;8.728;2023-04-06T01:38:58;2.60;83.40
12233;DHT22;6179;51.748;8.728;2023-04-06T01:44:59;2.40;84.10
12233;DHT22;6179;51.748;8.728;2023-04-06T01:51:00;2.60;83.60
12233;DHT22;6179;51.748;8.728;2023-04-06T01:57:01;2.70;82.90
12233;DHT22;6179;51.748;8.728;2023-04-06T02:03:02;2.50;83.20
12233;DHT22;6179;51.748;8.728;2023-04-06T02:09:05;2.70;82.60
12233;DHT22;6179;51.748;8.728;2023-04-06T02:15:07;2.80;82.30
12233;DHT22;6179;51.748;8.728;2023-04-06T02:21:08;2.90;82.30
12233;DHT22;6179;51.748;8.728;2023-04-06T02:27:09;2.70;82.70
12233;DHT22;6179;51.748;8.728;2023-04-06T02:33:10;2.30;83.80
12233;DHT22;6179;51.748;8.728;2023-04-06T02:39:11;2.50;83.50
12233;DHT22;6179;51.748;8.728;2023-04-06T02:45:13;2.30;83.80
12233;DHT22;6179;51.748;8.728;2023-04-06T02:51:14;2.30;84.50
12233;DHT22;6179;51.748;8.728;2023-04-06T02:57:15;2.40;84.00
12233;DHT22;6179;51.748;8.728;2023-04-06T03:03:16;2.40;83.80
12233;DHT22;6179;51.748;8.728;2023-04-06T03:09:16;2.30;83.50
12233;DHT22;6179;51.748;8.728;2023-04-06T03:15:17;2.30;83.60
12233;DHT22;6179;51.748;8.728;2023-04-06T03:21:18;2.00;84.70
12233;DHT22;6179;51.748;8.728;2023-04-06T03:27:19;2.10;85.10
12233;DHT22;6179;51.748;8.728;2023-04-06T03:33:20;2.50;83.80
12233;DHT22;6179;51.748;8.728;2023-04-06T03:39:21;2.10;85.00
12233;DHT22;6179;51.748;8.728;2023-04-06T03:45:22;2.30;84.20
12233;DHT22;6179;51.748;8.728;2023-04-06T03:51:23;2.20;84.20
12233;DHT22;6179;51.748;8.728;2023-04-06T03:57:24;2.50;83.60
12233;DHT22;6179;51.748;8.728;2023-04-06T04:03:25;2.60;83.20
12233;DHT22;6179;51.748;8.728;2023-04-06T04:09:27;2.30;83.60
12233;DHT22;6179;51.748;8.728;2023-04-06T04:15:28;2.40;83.20
12233;DHT22;6179;51.748;8.728;2023-04-06T04:21:30;2.50;82.80
12233;DHT22;6179;51.748;8.728;2023-04-06T04:27:31;2.20;84.20
12233;DHT22;6179;51.748;8.728;2023-04-06T04:33:32;2.10;84.40
12233;DHT22;6179;51.748;8.728;2023-04-06T04:39:33;2.10;84.60
12233;DHT22;6179;51.748;8.728;2023-04-06T04:45:34;2.40;83.40
12233;DHT22;6179;51.748;8.728;2023-04-06T04:51:35;2.20;84.10
12233;DHT22;6179;51.748;8.728;2023-04-06T04:57:36;2.00;84.80
12233;DHT22;6179;51.748;8.728;2023-04-06T05:03:37;2.30;83.90
12233;DHT22;6179;51.748;8.728;2023-04-06T05:09:39;2.20;83.90
12233;DHT22;6179;51.748;8.728;2023-04-06T05:15:41;2.30;83.40
12233;DHT22;6179;51.748;8.728;2023-04-06T05:21:41;2.30;83.40
12233;DHT22;6179;51.748;8.728;2023-04-06T05:27:42;2.20;84.30
12233;DHT22;6179;51.748;8.728;2023-04-06T05:33:43;2.60;83.00
12233;DHT22;6179;51.748;8.728;2023-04-06T05:39:44;2.50;83.10
12233;DHT22;6179;51.748;8.728;2023-04-06T05:45:45;2.90;82.10
12233;DHT22;6179;51.748;8.728;2023-04-06T05:51:46;2.80;82.20
12233;DHT22;6179;51.748;8.728;2023-04-06T05:57:47;2.60;83.30
12233;DHT22;6179;51.748;8.728;2023-04-06T06:03:47;2.60;83.90
12233;DHT22;6179;51.748;8.728;2023-04-06T06:09:48;2.50;83.10
12233;DHT22;6179;51.748;8.728;2023-04-06T06:15:50;2.80;83.20
12233;DHT22;6179;51.748;8.728;2023-04-06T06:21:50;3.20;82.30
12233;DHT22;6179;51.748;8.728;2023-04-06T06:27:51;3.50;80.90
12233;DHT22;6179;51.748;8.728;2023-04-06T06:33:52;4.00;77.40
12233;DHT22;6179;51.748;8.728;2023-04-06T06:39:53;4.40;75.40
12233;DHT22;6179;51.748;8.728;2023-04-06T06:45:54;4.50;76.60
12233;DHT22;6179;51.748;8.728;2023-04-06T06:51:55;4.90;74.90
12233;DHT22;6179;51.748;8.728;2023-04-06T06:57:56;5.20;75.20
12233;DHT22;6179;51.748;8.728;2023-04-06T07:03:56;5.70;72.60
12233;DHT22;6179;51.748;8.728;2023-04-06T07:09:57;6.10;71.40
12233;DHT22;6179;51.748;8.728;2023-04-06T07:15:58;6.50;70.10
12233;DHT22;6179;51.748;8.728;2023-04-06T07:21:59;6.60;69.00
12233;DHT22;6179;51.748;8.728;2023-04-06T07:28:02;6.70;70.30
12233;DHT22;6179;51.748;8.728;2023-04-06T07:34:03;7.10;68.70
12233;DHT22;6179;51.748;8.728;2023-04-06T07:40:05;7.40;67.90
12233;DHT22;6179;51.748;8.728;2023-04-06T07:46:06;7.80;68.70
12233;DHT22;6179;51.748;8.728;2023-04-06T07:52:07;8.00;66.70
12233;DHT22;6179;51.748;8.728;2023-04-06T07:58:08;8.30;65.90
12233;DHT22;6179;51.748;8.728;2023-04-06T08:04:09;8.60;65.40
12233;DHT22;6179;51.748;8.728;2023-04-06T08:10:10;8.90;63.80
12233;DHT22;6179;51.748;8.728;2023-04-06T08:16:11;9.20;65.10
12233;DHT22;6179;51.748;8.728;2023-04-06T08:22:11;9.30;63.10
12233;DHT22;6179;51.748;8.728;2023-04-06T08:28:12;9.40;62.10
12233;DHT22;6179;51.748;8.728;2023-04-06T08:34:13;9.80;62.10
12233;DHT22;6179;51.748;8.728;2023-04-06T08:40:14;10.00;60.60
12233;DHT22;6179;51.748;8.728;2023-04-06T08:46:16;10.00;59.80
12233;DHT22;6179;51.748;8.728;2023-04-06T08:52:18;10.10;60.10
12233;DHT22;6179;51.748;8.728;2023-04-06T08:58:20;10.10;61.20
12233;DHT22;6179;51.748;8.728;2023-04-06T09:04:22;10.20;61.20
12233;DHT22;6179;51.748;8.728;2023-04-06T09:10:24;10.30;62.60
12233;DHT22;6179;51.748;8.728;2023-04-06T09:16:26;10.40;63.50
12233;DHT22;6179;51.748;8.728;2023-04-06T09:22:35;10.90;60.80
12233;DHT22;6179;51.748;8.728;2023-04-06T09:28:47;10.80;61.80
12233;DHT22;6179;51.748;8.728;2023-04-06T09:34:53;10.70;61.40
12233;DHT22;6179;51.748;8.728;2023-04-06T09:40:53;11.00;62.70
12233;DHT22;6179;51.748;8.728;2023-04-06T09:46:55;11.30;61.10
12233;DHT22;6179;51.748;8.728;2023-04-06T09:52:58;11.60;61.40
12233;DHT22;6179;51.748;8.728;2023-04-06T09:59:02;11.80;60.60
12233;DHT22;6179;51.748;8.728;2023-04-06T10:11:38;11.90;59.20
12233;DHT22;6179;51.748;8.728;2023-04-06T10:17:39;12.10;60.00
12233;DHT22;6179;51.748;8.728;2023-04-06T10:23:58;12.30;60.50
12233;DHT22;6179;51.748;8.728;2023-04-06T10:30:05;12.80;59.30
12233;DHT22;6179;51.748;8.728;2023-04-06T10:36:13;12.80;60.80
12233;DHT22;6179;51.748;8.728;2023-04-06T10:42:15;12.80;60.00
12233;DHT22;6179;51.748;8.728;2023-04-06T10:48:18;12.70;58.70
12233;DHT22;6179;51.748;8.728;2023-04-06T10:54:21;12.70;60.80
12233;DHT22;6179;51.748;8.728;2023-04-06T11:00:24;12.80;60.00
12233;DHT22;6179;51.748;8.728;2023-04-06T11:06:27;13.00;60.80
12233;DHT22;6179;51.748;8.728;2023-04-06T11:12:29;12.90;59.00
12233;DHT22;6179;51.748;8.728;2023-04-06T11:18:31;13.10;57.90
12233;DHT22;6179;51.748;8.728;2023-04-06T11:24:32;13.40;57.80
12233;DHT22;6179;51.748;8.728;2023-04-06T11:30:33;13.10;57.40
12233;DHT22;6179;51.748;8.728;2023-04-06T11:36:34;13.50;58.80
12233;DHT22;6179;51.748;8.728;2023-04-06T11:42:36;13.90;57.70
12233;DHT22;6179;51.748;8.728;2023-04-06T11:48:44;14.00;57.60
12233;DHT22;6179;51.748;8.728;2023-04-06T11:54:47;14.10;57.60
12233;DHT22;6179;51.748;8.728;2023-04-06T12:00:49;14.30;56.40
12233;DHT22;6179;51.748;8.728;2023-04-06T12:06:50;14.50;54.90
12233;DHT22;6179;51.748;8.728;2023-04-06T12:12:51;14.40;52.10
12233;DHT22;6179;51.748;8.728;2023-04-06T12:18:52;14.70;53.00
12233;DHT22;6179;51.748;8.728;2023-04-06T12:24:53;14.70;49.80
12233;DHT22;6179;51.748;8.728;2023-04-06T12:30:54;14.30;48.80
12233;DHT22;6179;51.748;8.728;2023-04-06T12:36:55;14.30;48.10
12233;DHT22;6179;51.748;8.728;2023-04-06T12:42:56;14.20;47.70
12233;DHT22;6179;51.748;8.728;2023-04-06T12:48:57;14.40;48.40
12233;DHT22;6179;51.748;8.728;2023-04-06T12:54:59;14.70;48.40
12233;DHT22;6179;51.748;8.728;2023-04-06T13:01:06;14.40;46.60
12233;DHT22;6179;51.748;8.728;2023-04-06T13:07:07;14.50;47.40
12233;DHT22;6179;51.748;8.728;2023-04-06T13:13:08;14.80;48.20
12233;DHT22;6179;51.748;8.728;2023-04-06T13:19:09;15.10;50.90
12233;DHT22;6179;51.748;8.728;2023-04-06T13:25:11;15.30;46.50
12233;DHT22;6179;51.748;8.728;2023-04-06T13:31:11;15.10;48.60
12233;DHT22;6179;51.748;8.728;2023-04-06T13:37:12;15.20;50.30
12233;DHT22;6179;51.748;8.728;2023-04-06T13:43:13;15.10;48.40
12233;DHT22;6179;51.748;8.728;2023-04-06T13:49:15;15.10;48.50
12233;DHT22;6179;51.748;8.728;2023-04-06T13:55:15;15.10;49.10
12233;DHT22;6179;51.748;8.728;2023-04-06T14:01:16;15.20;48.80
12233;DHT22;6179;51.748;8.728;2023-04-06T14:07:17;14.80;48.30
12233;DHT22;6179;51.748;8.728;2023-04-06T14:13:18;15.00;49.20
12233;DHT22;6179;51.748;8.728;2023-04-06T14:19:19;15.00;49.60
12233;DHT22;6179;51.748;8.728;2023-04-06T14:25:21;14.80;52.00
12233;DHT22;6179;51.748;8.728;2023-04-06T14:31:22;15.10;51.40
12233;DHT22;6179;51.748;8.728;2023-04-06T14:37:23;14.60;51.90
12233;DHT22;6179;51.748;8.728;2023-04-06T14:43:23;14.40;50.40
12233;DHT22;6179;51.748;8.728;2023-04-06T14:49:25;14.70;52.70
12233;DHT22;6179;51.748;8.728;2023-04-06T14:55:26;15.00;50.40
12233;DHT22;6179;51.748;8.728;2023-04-06T15:01:27;15.00;50.50
12233;DHT22;6179;51.748;8.728;2023-04-06T15:07:28;15.40;51.80
12233;DHT22;6179;51.748;8.728;2023-04-06T15:13:29;15.30;50.60
12233;DHT22;6179;51.748;8.728;2023-04-06T15:19:30;15.50;49.50
12233;DHT22;6179;51.748;8.728;2023-04-06T15:25:31;15.60;51.00
12233;DHT22;6179;51.748;8.728;2023-04-06T15:31:31;15.40;48.80
12233;DHT22;6179;51.748;8.728;2023-04-06T15:37:33;14.80;52.20
12233;DHT22;6179;51.748;8.728;2023-04-06T15:43:34;14.40;51.30
12233;DHT22;6179;51.748;8.728;2023-04-06T15:49:35;14.20;51.00
12233;DHT22;6179;51.748;8.728;2023-04-06T15:55:36;14.10;51.30
12233;DHT22;6179;51.748;8.728;2023-04-06T16:01:36;14.00;52.60
12233;DHT22;6179;51.748;8.728;2023-04-06T16:07:37;14.00;53.70
12233;DHT22;6179;51.748;8.728;2023-04-06T16:13:38;14.20;55.30
12233;DHT22;6179;51.748;8.728;2023-04-06T16:19:39;14.10;53.20
12233;DHT22;6179;51.748;8.728;2023-04-06T16:25:41;13.80;53.60
12233;DHT22;6179;51.748;8.728;2023-04-06T16:31:41;14.10;54.90
12233;DHT22;6179;51.748;8.728;2023-04-06T16:37:46;13.70;54.60
12233;DHT22;6179;51.748;8.728;2023-04-06T16:43:47;13.30;54.80
12233;DHT22;6179;51.748;8.728;2023-04-06T16:49:48;13.40;55.60
12233;DHT22;6179;51.748;8.728;2023-04-06T16:55:50;13.30;56.20
12233;DHT22;6179;51.748;8.728;2023-04-06T17:01:50;13.40;57.60
12233;DHT22;6179;51.748;8.728;2023-04-06T17:07:52;13.20;58.70
12233;DHT22;6179;51.748;8.728;2023-04-06T17:13:52;13.10;58.10
12233;DHT22;6179;51.748;8.728;2023-04-06T17:19:53;13.00;58.80
12233;DHT22;6179;51.748;8.728;2023-04-06T17:25:54;13.00;59.10
12233;DHT22;6179;51.748;8.728;2023-04-06T17:31:56;12.90;59.60
12233;DHT22;6179;51.748;8.728;2023-04-06T17:37:57;13.20;59.80
12233;DHT22;6179;51.748;8.728;2023-04-06T17:43:58;12.80;60.30
12233;DHT22;6179;51.748;8.728;2023-04-06T17:50:00;12.70;63.10
12233;DHT22;6179;51.748;8.728;2023-04-06T17:56:04;12.90;63.20
12233;DHT22;6179;51.748;8.728;2023-04-06T18:02:06;12.60;63.60
12233;DHT22;6179;51.748;8.728;2023-04-06T18:08:06;12.10;64.80
12233;DHT22;6179;51.748;8.728;2023-04-06T18:14:07;12.10;64.10
12233;DHT22;6179;51.748;8.728;2023-04-06T18:20:10;11.80;64.70
12233;DHT22;6179;51.748;8.728;2023-04-06T18:26:18;11.80;65.00
12233;DHT22;6179;51.748;8.728;2023-04-06T18:32:24;11.60;65.70
12233;DHT22;6179;51.748;8.728;2023-04-06T18:38:29;11.60;65.90
12233;DHT22;6179;51.748;8.728;2023-04-06T18:44:30;12.10;64.70
12233;DHT22;6179;51.748;8.728;2023-04-06T18:50:31;11.60;65.30
12233;DHT22;6179;51.748;8.728;2023-04-06T18:56:32;11.20;66.00
12233;DHT22;6179;51.748;8.728;2023-04-06T19:02:33;11.00;67.20
12233;DHT22;6179;51.748;8.728;2023-04-06T19:08:33;10.90;67.80
12233;DHT22;6179;51.748;8.728;2023-04-06T19:14:34;10.90;68.60
12233;DHT22;6179;51.748;8.728;2023-04-06T19:20:35;10.80;69.30
12233;DHT22;6179;51.748;8.728;2023-04-06T19:26:36;10.80;69.30
12233;DHT22;6179;51.748;8.728;2023-04-06T19:32:38;10.70;70.60
12233;DHT22;6179;51.748;8.728;2023-04-06T19:38:39;10.60;71.30
12233;DHT22;6179;51.748;8.728;2023-04-06T19:44:40;10.60;71.60
12233;DHT22;6179;51.748;8.728;2023-04-06T19:50:42;10.60;71.90
12233;DHT22;6179;51.748;8.728;2023-04-06T19:56:43;10.40;72.60
12233;DHT22;6179;51.748;8.728;2023-04-06T20:02:44;10.50;72.70
12233;DHT22;6179;51.748;8.728;2023-04-06T20:08:45;10.40;73.40
12233;DHT22;6179;51.748;8.728;2023-04-06T20:14:45;10.70;72.60
12233;DHT22;6179;51.748;8.728;2023-04-06T20:20:46;10.40;73.60
12233;DHT22;6179;51.748;8.728;2023-04-06T20:26:49;10.40;74.70
12233;DHT22;6179;51.748;8.728;2023-04-06T20:32:50;10.30;75.20
12233;DHT22;6179;51.748;8.728;2023-04-06T20:38:50;10.30;74.70
12233;DHT22;6179;51.748;8.728;2023-04-06T20:44:51;10.10;75.50
12233;DHT22;6179;51.748;8.728;2023-04-06T20:50:53;10.20;76.00
12233;DHT22;6179;51.748;8.728;2023-04-06T20:56:54;10.10;76.60
12233;DHT22;6179;51.748;8.728;2023-04-06T21:02:58;9.90;77.00
12233;DHT22;6179;51.748;8.728;2023-04-06T21:09:00;10.00;76.80
12233;DHT22;6179;51.748;8.728;2023-04-06T21:15:01;9.90;77.40
12233;DHT22;6179;51.748;8.728;2023-04-06T21:21:02;9.90;77.40
12233;DHT22;6179;51.748;8.728;2023-04-06T21:27:03;9.90;77.90
12233;DHT22;6179;51.748;8.728;2023-04-06T21:33:04;10.00;78.20
12233;DHT22;6179;51.748;8.728;2023-04-06T21:39:06;9.90;77.90
12233;DHT22;6179;51.748;8.728;2023-04-06T21:45:07;9.80;78.50
12233;DHT22;6179;51.748;8.728;2023-04-06T21:51:18;9.70;79.50
12233;DHT22;6179;51.748;8.728;2023-04-06T21:57:19;9.90;79.20
12233;DHT22;6179;51.748;8.728;2023-04-06T22:03:20;9.80;80.30
12233;DHT22;6179;51.748;8.728;2023-04-06T22:09:21;9.80;80.40
12233;DHT22;6179;51.748;8.728;2023-04-06T22:15:22;9.80;80.20
12233;DHT22;6179;51.748;8.728;2023-04-06T22:21:23;9.60;81.90
12233;DHT22;6179;51.748;8.728;2023-04-06T22:27:24;9.40;83.50
12233;DHT22;6179;51.748;8.728;2023-04-06T22:33:24;9.40;84.50
12233;DHT22;6179;51.748;8.728;2023-04-06T22:39:25;9.30;85.90
12233;DHT22;6179;51.748;8.728;2023-04-06T22:45:26;9.30;85.90
12233;DHT22;6179;51.748;8.728;2023-04-06T22:51:27;9.00;88.10
12233;DHT22;6179;51.748;8.728;2023-04-06T22:57:28;9.20;88.80
12233;DHT22;6179;51.748;8.728;2023-04-06T23:03:29;8.90;90.80
12233;DHT22;6179;51.748;8.728;2023-04-06T23:09:29;8.90;90.60
12233;DHT22;6179;51.748;8.728;2023-04-06T23:15:31;9.00;90.10
12233;DHT22;6179;51.748;8.728;2023-04-06T23:21:32;8.70;91.20
12233;DHT22;6179;51.748;8.728;2023-04-06T23:27:33;8.60;91.90
12233;DHT22;6179;51.748;8.728;2023-04-06T23:33:34;8.40;92.50
12233;DHT22;6179;51.748;8.728;2023-04-06T23:39:35;8.60;92.20
12233;DHT22;6179;51.748;8.728;2023-04-06T23:45:39;8.30;92.90
12233;DHT22;6179;51.748;8.728;2023-04-06T23:51:41;8.40;92.80
12233;DHT22;6179;51.748;8.728;2023-04-06T23:57:42;8.10;93.90
